sensor_id;sensor_type;location;lat;lon;timestamp;temperature;humidity
2579;DHT22;1299;48.282;14.398;2023-04-01T00:01:51;10.50;99.90
2579;DHT22;1299;48.282;14.398;2023-04-01T00:04:18;10.60;99.90
2579;DHT22;1299;48.282;14.398;2023-04-01T00:06:46;10.70;99.90
2579;DHT22;1299;48.282;14.398;2023-04-01T00:09:14;10.60;99.90
2579;DHT22;1299;48.282;14.398;2023-04-01T00:11:41;10.40;99.90
2579;DHT22;1299;48.282;14.398;2023-04-01T00:14:10;10.50;99.90
2579;DHT22;1299;48.282;14.398;2023-04-01T00:16:38;10.40;99.90
2579;DHT22;1299;48.282;14.398;2023-04-01T00:19:05;10.30;99.90
2579;DHT22;1299;48.282;14.398;2023-04-01T00:21:32;10.30;99.90
2579;DHT22;1299;48.282;14.398;2023-04-01T00:24:00;10.50;99.90
2579;DHT22;1299;48.282;14.398;2023-04-01T00:26:27;10.50;99.90
2579;DHT22;1299;48.282;14.398;2023-04-01T00:28:54;10.60;99.90
2579;DHT22;1299;48.282;14.398;2023-04-01T00:31:23;10.50;99.90
2579;DHT22;1299;48.282;14.398;2023-04-01T00:33:51;10.50;99.90
2579;DHT22;1299;48.282;14.398;2023-04-01T00:36:21;10.60;99.90
2579;DHT22;1299;48.282;14.398;2023-04-01T00:38:49;10.50;99.90
2579;DHT22;1299;48.282;14.398;2023-04-01T00:41:20;10.60;99.90
2579;DHT22;1299;48.282;14.398;2023-04-01T00:43:49;10.60;99.90
2579;DHT22;1299;48.282;14.398;2023-04-01T00:46:17;10.60;99.90
2579;DHT22;1299;48.282;14.398;2023-04-01T00:48:49;10.60;99.90
2579;DHT22;1299;48.282;14.398;2023-04-01T00:51:22;10.50;99.90
2579;DHT22;1299;48.282;14.398;2023-04-01T00:53:52;10.40;99.90
2579;DHT22;1299;48.282;14.398;2023-04-01T00:56:24;10.10;99.90
2579;DHT22;1299;48.282;14.398;2023-04-01T00:58:57;10.20;99.90
2579;DHT22;1299;48.282;14.398;2023-04-01T01:01:26;10.00;99.90
2579;DHT22;1299;48.282;14.398;2023-04-01T01:03:56;9.70;99.90
2579;DHT22;1299;48.282;14.398;2023-04-01T01:06:33;9.90;99.90
2579;DHT22;1299;48.282;14.398;2023-04-01T01:09:17;9.90;99.90
2579;DHT22;1299;48.282;14.398;2023-04-01T01:11:52;9.90;99.90
2579;DHT22;1299;48.282;14.398;2023-04-01T01:14:36;9.80;99.90
2579;DHT22;1299;48.282;14.398;2023-04-01T01:17:12;9.70;99.90
2579;DHT22;1299;48.282;14.398;2023-04-01T01:19:57;9.70;99.90
2579;DHT22;1299;48.282;14.398;2023-04-01T01:22:44;9.80;99.90
2579;DHT22;1299;48.282;14.398;2023-04-01T01:25:27;9.90;99.90
2579;DHT22;1299;48.282;14.398;2023-04-01T01:28:08;9.80;99.90
2579;DHT22;1299;48.282;14.398;2023-04-01T01:30:48;9.80;99.90
2579;DHT22;1299;48.282;14.398;2023-04-01T01:33:34;9.70;99.90
2579;DHT22;1299;48.282;14.398;2023-04-01T01:36:06;9.70;99.90
2579;DHT22;1299;48.282;14.398;2023-04-01T01:38:37;9.60;99.90
2579;DHT22;1299;48.282;14.398;2023-04-01T01:41:07;9.70;99.90
2579;DHT22;1299;48.282;14.398;2023-04-01T01:43:38;9.70;99.90
2579;DHT22;1299;48.282;14.398;2023-04-01T01:46:09;9.70;99.90
2579;DHT22;1299;48.282;14.398;2023-04-01T01:48:38;9.60;99.90
2579;DHT22;1299;48.282;14.398;2023-04-01T01:51:08;9.60;99.90
2579;DHT22;1299;48.282;14.398;2023-04-01T01:53:36;9.70;99.90
2579;DHT22;1299;48.282;14.398;2023-04-01T01:56:04;9.70;99.90
2579;DHT22;1299;48.282;14.398;2023-04-01T01:58:33;9.80;99.90
2579;DHT22;1299;48.282;14.398;2023-04-01T02:01:08;9.80;99.90
2579;DHT22;1299;48.282;14.398;2023-04-01T02:03:38;9.80;99.90
2579;DHT22;1299;48.282;14.398;2023-04-01T02:06:11;9.90;99.90
2579;DHT22;1299;48.282;14.398;2023-04-01T02:08:42;9.80;99.90
2579;DHT22;1299;48.282;14.398;2023-04-01T02:11:13;9.80;99.90
2579;DHT22;1299;48.282;14.398;2023-04-01T02:13:45;9.80;99.90
2579;DHT22;1299;48.282;14.398;2023-04-01T02:16:18;9.70;99.90
2579;DHT22;1299;48.282;14.398;2023-04-01T02:18:50;9.80;99.90
2579;DHT22;1299;48.282;14.398;2023-04-01T02:21:22;9.50;99.90
2579;DHT22;1299;48.282;14.398;2023-04-01T02:23:53;9.70;99.90
2579;DHT22;1299;48.282;14.398;2023-04-01T02:26:22;9.60;99.90
2579;DHT22;1299;48.282;14.398;2023-04-01T02:28:51;9.60;99.90
2579;DHT22;1299;48.282;14.398;2023-04-01T02:31:20;9.70;99.90
2579;DHT22;1299;48.282;14.398;2023-04-01T02:33:48;9.60;99.90
2579;DHT22;1299;48.282;14.398;2023-04-01T02:36:17;9.80;99.90
2579;DHT22;1299;48.282;14.398;2023-04-01T02:38:46;9.70;99.90
2579;DHT22;1299;48.282;14.398;2023-04-01T02:41:14;9.70;99.90
2579;DHT22;1299;48.282;14.398;2023-04-01T02:43:42;9.80;99.90
2579;DHT22;1299;48.282;14.398;2023-04-01T02:46:09;9.80;99.90
2579;DHT22;1299;48.282;14.398;2023-04-01T02:48:36;9.90;99.90
2579;DHT22;1299;48.282;14.398;2023-04-01T02:51:04;9.70;99.90
2579;DHT22;1299;48.282;14.398;2023-04-01T02:53:31;9.90;99.90
2579;DHT22;1299;48.282;14.398;2023-04-01T02:56:00;9.80;99.90
2579;DHT22;1299;48.282;14.398;2023-04-01T02:58:27;9.80;99.90
2579;DHT22;1299;48.282;14.398;2023-04-01T03:00:54;9.80;99.90
2579;DHT22;1299;48.282;14.398;2023-04-01T03:03:22;9.80;99.90
2579;DHT22;1299;48.282;14.398;2023-04-01T03:05:49;9.90;99.90
2579;DHT22;1299;48.282;14.398;2023-04-01T03:08:16;9.90;99.90
2579;DHT22;1299;48.282;14.398;2023-04-01T03:10:43;9.90;99.90
2579;DHT22;1299;48.282;14.398;2023-04-01T03:13:12;10.00;99.90
2579;DHT22;1299;48.282;14.398;2023-04-01T03:15:39;10.00;99.90
2579;DHT22;1299;48.282;14.398;2023-04-01T03:18:07;10.00;99.90
2579;DHT22;1299;48.282;14.398;2023-04-01T03:20:34;10.00;99.90
2579;DHT22;1299;48.282;14.398;2023-04-01T03:23:01;10.00;99.90
2579;DHT22;1299;48.282;14.398;2023-04-01T03:25:28;9.80;99.90
2579;DHT22;1299;48.282;14.398;2023-04-01T03:27:56;9.90;99.90
2579;DHT22;1299;48.282;14.398;2023-04-01T03:30:27;9.90;99.90
2579;DHT22;1299;48.282;14.398;2023-04-01T03:32:56;9.90;99.90
2579;DHT22;1299;48.282;14.398;2023-04-01T03:35:23;9.80;99.90
2579;DHT22;1299;48.282;14.398;2023-04-01T03:37:50;9.90;99.90
2579;DHT22;1299;48.282;14.398;2023-04-01T03:40:18;9.80;99.90
2579;DHT22;1299;48.282;14.398;2023-04-01T03:42:47;9.90;99.90
2579;DHT22;1299;48.282;14.398;2023-04-01T03:45:14;9.80;99.90
2579;DHT22;1299;48.282;14.398;2023-04-01T03:47:43;9.70;99.90
2579;DHT22;1299;48.282;14.398;2023-04-01T03:50:11;9.80;99.90
2579;DHT22;1299;48.282;14.398;2023-04-01T03:52:39;9.70;99.90
2579;DHT22;1299;48.282;14.398;2023-04-01T03:55:07;9.70;99.90
2579;DHT22;1299;48.282;14.398;2023-04-01T03:57:34;9.70;99.90
2579;DHT22;1299;48.282;14.398;2023-04-01T04:00:01;9.70;99.90
2579;DHT22;1299;48.282;14.398;2023-04-01T04:02:29;9.70;99.90
2579;DHT22;1299;48.282;14.398;2023-04-01T04:04:58;9.80;99.90
2579;DHT22;1299;48.282;14.398;2023-04-01T04:07:25;9.80;99.90
2579;DHT22;1299;48.282;14.398;2023-04-01T04:09:52;9.80;99.90
2579;DHT22;1299;48.282;14.398;2023-04-01T04:12:19;9.80;99.90
2579;DHT22;1299;48.282;14.398;2023-04-01T04:14:47;9.80;99.90
2579;DHT22;1299;48.282;14.398;2023-04-01T04:17:14;9.70;99.90
2579;DHT22;1299;48.282;14.398;2023-04-01T04:19:42;9.90;99.90
2579;DHT22;1299;48.282;14.398;2023-04-01T04:22:11;10.00;99.90
2579;DHT22;1299;48.282;14.398;2023-04-01T04:24:38;10.00;99.90
2579;DHT22;1299;48.282;14.398;2023-04-01T04:27:05;10.00;99.90
2579;DHT22;1299;48.282;14.398;2023-04-01T04:29:32;10.00;99.90
2579;DHT22;1299;48.282;14.398;2023-04-01T04:32:00;10.00;99.90
2579;DHT22;1299;48.282;14.398;2023-04-01T04:34:27;9.90;99.90
2579;DHT22;1299;48.282;14.398;2023-04-01T04:36:54;9.80;99.90
2579;DHT22;1299;48.282;14.398;2023-04-01T04:39:23;9.60;99.90
2579;DHT22;1299;48.282;14.398;2023-04-01T04:41:52;8.90;99.90
2579;DHT22;1299;48.282;14.398;2023-04-01T04:44:19;8.80;99.90
2579;DHT22;1299;48.282;14.398;2023-04-01T04:46:46;9.20;99.90
2579;DHT22;1299;48.282;14.398;2023-04-01T04:49:13;9.40;99.90
2579;DHT22;1299;48.282;14.398;2023-04-01T04:51:41;9.40;99.90
2579;DHT22;1299;48.282;14.398;2023-04-01T04:54:08;9.50;99.90
2579;DHT22;1299;48.282;14.398;2023-04-01T04:56:37;9.60;99.90
2579;DHT22;1299;48.282;14.398;2023-04-01T04:59:04;9.50;99.90
2579;DHT22;1299;48.282;14.398;2023-04-01T05:01:32;9.60;99.90
2579;DHT22;1299;48.282;14.398;2023-04-01T05:04:00;9.60;99.90
2579;DHT22;1299;48.282;14.398;2023-04-01T05:06:27;9.70;99.90
2579;DHT22;1299;48.282;14.398;2023-04-01T05:08:57;9.70;99.90
2579;DHT22;1299;48.282;14.398;2023-04-01T05:11:24;9.40;99.90
2579;DHT22;1299;48.282;14.398;2023-04-01T05:13:54;9.40;99.90
2579;DHT22;1299;48.282;14.398;2023-04-01T05:16:21;9.50;99.90
2579;DHT22;1299;48.282;14.398;2023-04-01T05:18:49;9.10;99.90
2579;DHT22;1299;48.282;14.398;2023-04-01T05:21:16;9.50;99.90
2579;DHT22;1299;48.282;14.398;2023-04-01T05:23:44;9.40;99.90
2579;DHT22;1299;48.282;14.398;2023-04-01T05:26:13;9.70;99.90
2579;DHT22;1299;48.282;14.398;2023-04-01T05:28:40;9.80;99.90
2579;DHT22;1299;48.282;14.398;2023-04-01T05:31:09;10.00;99.90
2579;DHT22;1299;48.282;14.398;2023-04-01T05:33:37;10.00;99.90
2579;DHT22;1299;48.282;14.398;2023-04-01T05:36:09;9.90;99.90
2579;DHT22;1299;48.282;14.398;2023-04-01T05:38:36;9.70;99.90
2579;DHT22;1299;48.282;14.398;2023-04-01T05:41:04;9.60;99.90
2579;DHT22;1299;48.282;14.398;2023-04-01T05:43:31;9.40;99.90
2579;DHT22;1299;48.282;14.398;2023-04-01T05:45:58;9.40;99.90
2579;DHT22;1299;48.282;14.398;2023-04-01T05:48:27;9.40;99.90
2579;DHT22;1299;48.282;14.398;2023-04-01T05:50:54;9.40;99.90
2579;DHT22;1299;48.282;14.398;2023-04-01T05:53:22;9.60;99.90
2579;DHT22;1299;48.282;14.398;2023-04-01T05:55:49;9.70;99.90
2579;DHT22;1299;48.282;14.398;2023-04-01T05:58:17;9.90;99.90
2579;DHT22;1299;48.282;14.398;2023-04-01T06:00:44;9.80;99.90
2579;DHT22;1299;48.282;14.398;2023-04-01T06:03:12;9.80;99.90
2579;DHT22;1299;48.282;14.398;2023-04-01T06:05:42;9.80;99.90
2579;DHT22;1299;48.282;14.398;2023-04-01T06:08:12;9.90;99.90
2579;DHT22;1299;48.282;14.398;2023-04-01T06:10:50;9.90;99.90
2579;DHT22;1299;48.282;14.398;2023-04-01T06:13:29;10.10;99.90
2579;DHT22;1299;48.282;14.398;2023-04-01T06:16:07;10.20;99.90
2579;DHT22;1299;48.282;14.398;2023-04-01T06:19:11;10.10;99.90
2579;DHT22;1299;48.282;14.398;2023-04-01T06:22:02;10.20;99.90
2579;DHT22;1299;48.282;14.398;2023-04-01T06:24:45;10.20;99.90
2579;DHT22;1299;48.282;14.398;2023-04-01T06:27:24;10.20;99.90
2579;DHT22;1299;48.282;14.398;2023-04-01T06:30:06;10.20;99.90
2579;DHT22;1299;48.282;14.398;2023-04-01T06:32:50;10.10;99.90
2579;DHT22;1299;48.282;14.398;2023-04-01T06:35:35;10.10;99.90
2579;DHT22;1299;48.282;14.398;2023-04-01T06:38:37;10.20;99.90
2579;DHT22;1299;48.282;14.398;2023-04-01T06:41:21;10.20;99.90
2579;DHT22;1299;48.282;14.398;2023-04-01T06:43:58;10.30;99.90
2579;DHT22;1299;48.282;14.398;2023-04-01T06:46:35;10.40;99.90
2579;DHT22;1299;48.282;14.398;2023-04-01T06:49:21;10.60;99.90
2579;DHT22;1299;48.282;14.398;2023-04-01T06:51:58;10.80;99.90
2579;DHT22;1299;48.282;14.398;2023-04-01T06:54:32;10.80;99.90
2579;DHT22;1299;48.282;14.398;2023-04-01T06:57:05;10.80;99.90
2579;DHT22;1299;48.282;14.398;2023-04-01T06:59:37;10.70;99.90
2579;DHT22;1299;48.282;14.398;2023-04-01T07:02:18;10.80;99.90
2579;DHT22;1299;48.282;14.398;2023-04-01T07:04:48;10.70;99.90
2579;DHT22;1299;48.282;14.398;2023-04-01T07:07:21;10.90;99.90
2579;DHT22;1299;48.282;14.398;2023-04-01T07:09:52;11.10;99.90
2579;DHT22;1299;48.282;14.398;2023-04-01T07:12:28;11.10;99.90
2579;DHT22;1299;48.282;14.398;2023-04-01T07:15:06;11.20;99.90
2579;DHT22;1299;48.282;14.398;2023-04-01T07:17:41;11.40;99.90
2579;DHT22;1299;48.282;14.398;2023-04-01T07:20:16;11.40;99.90
2579;DHT22;1299;48.282;14.398;2023-04-01T07:22:49;11.30;99.90
2579;DHT22;1299;48.282;14.398;2023-04-01T07:25:20;11.30;99.90
2579;DHT22;1299;48.282;14.398;2023-04-01T07:27:47;11.40;99.90
2579;DHT22;1299;48.282;14.398;2023-04-01T07:30:17;11.40;99.90
2579;DHT22;1299;48.282;14.398;2023-04-01T07:32:48;11.30;99.90
2579;DHT22;1299;48.282;14.398;2023-04-01T07:35:24;11.40;99.90
2579;DHT22;1299;48.282;14.398;2023-04-01T07:38:09;11.50;99.90
2579;DHT22;1299;48.282;14.398;2023-04-01T07:40:46;11.50;99.90
2579;DHT22;1299;48.282;14.398;2023-04-01T07:46:23;11.60;99.90
2579;DHT22;1299;48.282;14.398;2023-04-01T07:49:00;11.60;99.90
2579;DHT22;1299;48.282;14.398;2023-04-01T07:51:36;11.80;99.90
2579;DHT22;1299;48.282;14.398;2023-04-01T07:54:09;11.80;99.90
2579;DHT22;1299;48.282;14.398;2023-04-01T07:56:45;11.90;99.90
2579;DHT22;1299;48.282;14.398;2023-04-01T07:59:20;11.90;99.90
2579;DHT22;1299;48.282;14.398;2023-04-01T08:01:52;11.90;99.90
2579;DHT22;1299;48.282;14.398;2023-04-01T08:04:30;11.90;99.90
2579;DHT22;1299;48.282;14.398;2023-04-01T08:07:06;12.00;99.90
2579;DHT22;1299;48.282;14.398;2023-04-01T08:09:42;12.10;99.90
2579;DHT22;1299;48.282;14.398;2023-04-01T08:12:24;12.00;99.90
2579;DHT22;1299;48.282;14.398;2023-04-01T08:15:04;12.00;99.90
2579;DHT22;1299;48.282;14.398;2023-04-01T08:17:41;12.00;99.90
2579;DHT22;1299;48.282;14.398;2023-04-01T08:20:24;12.00;99.90
2579;DHT22;1299;48.282;14.398;2023-04-01T08:22:57;12.10;99.90
2579;DHT22;1299;48.282;14.398;2023-04-01T08:25:28;12.20;99.90
2579;DHT22;1299;48.282;14.398;2023-04-01T08:28:02;12.20;99.90
2579;DHT22;1299;48.282;14.398;2023-04-01T08:30:39;12.50;99.90
2579;DHT22;1299;48.282;14.398;2023-04-01T08:33:12;12.80;99.90
2579;DHT22;1299;48.282;14.398;2023-04-01T08:35:46;13.10;99.90
2579;DHT22;1299;48.282;14.398;2023-04-01T08:38:17;13.30;99.90
2579;DHT22;1299;48.282;14.398;2023-04-01T08:40:57;13.50;99.90
2579;DHT22;1299;48.282;14.398;2023-04-01T08:43:43;13.50;99.90
2579;DHT22;1299;48.282;14.398;2023-04-01T08:46:36;13.90;99.90
2579;DHT22;1299;48.282;14.398;2023-04-01T08:49:17;14.40;99.90
2579;DHT22;1299;48.282;14.398;2023-04-01T08:52:17;14.50;99.90
2579;DHT22;1299;48.282;14.398;2023-04-01T08:55:26;14.40;99.90
2579;DHT22;1299;48.282;14.398;2023-04-01T09:00:47;14.50;99.90
2579;DHT22;1299;48.282;14.398;2023-04-01T09:03:36;14.30;99.90
2579;DHT22;1299;48.282;14.398;2023-04-01T09:06:29;14.00;99.90
2579;DHT22;1299;48.282;14.398;2023-04-01T09:09:18;13.80;99.90
2579;DHT22;1299;48.282;14.398;2023-04-01T09:12:22;13.80;99.90
2579;DHT22;1299;48.282;14.398;2023-04-01T09:15:22;13.50;99.90
2579;DHT22;1299;48.282;14.398;2023-04-01T09:18:17;13.70;99.90
2579;DHT22;1299;48.282;14.398;2023-04-01T09:21:05;13.90;99.90
2579;DHT22;1299;48.282;14.398;2023-04-01T09:23:47;13.80;99.90
2579;DHT22;1299;48.282;14.398;2023-04-01T09:26:30;13.80;99.90
2579;DHT22;1299;48.282;14.398;2023-04-01T09:29:10;13.70;99.90
2579;DHT22;1299;48.282;14.398;2023-04-01T09:32:01;13.80;99.90
2579;DHT22;1299;48.282;14.398;2023-04-01T09:34:51;13.90;99.90
2579;DHT22;1299;48.282;14.398;2023-04-01T09:37:25;14.00;99.90
2579;DHT22;1299;48.282;14.398;2023-04-01T09:40:20;13.90;99.90
2579;DHT22;1299;48.282;14.398;2023-04-01T09:43:10;13.90;99.90
2579;DHT22;1299;48.282;14.398;2023-04-01T09:45:51;13.90;99.90
2579;DHT22;1299;48.282;14.398;2023-04-01T09:48:50;13.90;99.90
2579;DHT22;1299;48.282;14.398;2023-04-01T09:51:31;13.80;99.90
2579;DHT22;1299;48.282;14.398;2023-04-01T09:54:16;13.80;99.90
2579;DHT22;1299;48.282;14.398;2023-04-01T10:00:28;13.70;99.90
2579;DHT22;1299;48.282;14.398;2023-04-01T10:03:41;13.70;99.90
2579;DHT22;1299;48.282;14.398;2023-04-01T10:12:48;13.60;99.90
2579;DHT22;1299;48.282;14.398;2023-04-01T10:21:47;14.00;99.90
2579;DHT22;1299;48.282;14.398;2023-04-01T10:24:43;13.80;99.90
2579;DHT22;1299;48.282;14.398;2023-04-01T10:27:26;14.00;99.90
2579;DHT22;1299;48.282;14.398;2023-04-01T10:39:33;14.50;99.90
2579;DHT22;1299;48.282;14.398;2023-04-01T10:42:39;14.60;99.90
2579;DHT22;1299;48.282;14.398;2023-04-01T10:54:40;14.80;99.90
2579;DHT22;1299;48.282;14.398;2023-04-01T10:57:30;14.80;99.90
2579;DHT22;1299;48.282;14.398;2023-04-01T11:00:26;14.80;99.90
2579;DHT22;1299;48.282;14.398;2023-04-01T11:03:27;14.60;99.90
2579;DHT22;1299;48.282;14.398;2023-04-01T11:12:20;15.00;99.90
2579;DHT22;1299;48.282;14.398;2023-04-01T11:24:50;14.70;98.20
2579;DHT22;1299;48.282;14.398;2023-04-01T11:27:33;14.80;98.80
2579;DHT22;1299;48.282;14.398;2023-04-01T11:30:35;14.80;99.10
2579;DHT22;1299;48.282;14.398;2023-04-01T11:33:17;14.80;98.50
2579;DHT22;1299;48.282;14.398;2023-04-01T11:35:59;14.90;98.20
2579;DHT22;1299;48.282;14.398;2023-04-01T11:38:47;14.90;98.10
2579;DHT22;1299;48.282;14.398;2023-04-01T11:41:26;14.90;97.20
2579;DHT22;1299;48.282;14.398;2023-04-01T11:44:13;14.90;98.00
2579;DHT22;1299;48.282;14.398;2023-04-01T11:47:01;15.10;97.00
2579;DHT22;1299;48.282;14.398;2023-04-01T11:49:41;15.10;97.90
2579;DHT22;1299;48.282;14.398;2023-04-01T11:52:25;15.50;97.80
2579;DHT22;1299;48.282;14.398;2023-04-01T11:55:06;15.80;96.50
2579;DHT22;1299;48.282;14.398;2023-04-01T11:57:55;16.10;95.90
2579;DHT22;1299;48.282;14.398;2023-04-01T12:00:51;16.30;96.00
2579;DHT22;1299;48.282;14.398;2023-04-01T12:03:38;16.60;96.40
2579;DHT22;1299;48.282;14.398;2023-04-01T12:06:16;16.30;97.10
2579;DHT22;1299;48.282;14.398;2023-04-01T12:08:51;16.50;94.90
2579;DHT22;1299;48.282;14.398;2023-04-01T12:11:29;16.80;94.30
2579;DHT22;1299;48.282;14.398;2023-04-01T12:14:05;16.70;94.30
2579;DHT22;1299;48.282;14.398;2023-04-01T12:16:51;16.70;93.60
2579;DHT22;1299;48.282;14.398;2023-04-01T12:19:30;17.20;93.60
2579;DHT22;1299;48.282;14.398;2023-04-01T12:22:16;17.30;93.80
2579;DHT22;1299;48.282;14.398;2023-04-01T12:24:48;17.30;91.60
2579;DHT22;1299;48.282;14.398;2023-04-01T12:27:38;17.30;93.10
2579;DHT22;1299;48.282;14.398;2023-04-01T12:30:30;17.60;93.50
2579;DHT22;1299;48.282;14.398;2023-04-01T12:33:11;17.50;93.10
2579;DHT22;1299;48.282;14.398;2023-04-01T12:35:52;17.30;92.30
2579;DHT22;1299;48.282;14.398;2023-04-01T12:38:28;17.10;92.70
2579;DHT22;1299;48.282;14.398;2023-04-01T12:41:11;17.10;92.40
2579;DHT22;1299;48.282;14.398;2023-04-01T12:47:11;16.30;92.90
2579;DHT22;1299;48.282;14.398;2023-04-01T12:49:58;16.20;92.30
2579;DHT22;1299;48.282;14.398;2023-04-01T12:52:42;16.00;92.90
2579;DHT22;1299;48.282;14.398;2023-04-01T12:55:36;15.70;93.40
2579;DHT22;1299;48.282;14.398;2023-04-01T13:07:40;15.70;95.50
2579;DHT22;1299;48.282;14.398;2023-04-01T13:10:17;15.80;96.30
2579;DHT22;1299;48.282;14.398;2023-04-01T13:13:05;15.60;96.50
2579;DHT22;1299;48.282;14.398;2023-04-01T13:15:40;15.20;99.90
2579;DHT22;1299;48.282;14.398;2023-04-01T13:18:21;14.80;99.90
2579;DHT22;1299;48.282;14.398;2023-04-01T13:20:57;14.50;99.90
2579;DHT22;1299;48.282;14.398;2023-04-01T13:23:35;14.30;99.90
2579;DHT22;1299;48.282;14.398;2023-04-01T13:26:13;14.30;99.90
2579;DHT22;1299;48.282;14.398;2023-04-01T13:28:50;14.40;99.90
2579;DHT22;1299;48.282;14.398;2023-04-01T13:31:36;14.40;99.90
2579;DHT22;1299;48.282;14.398;2023-04-01T13:34:26;14.50;99.90
2579;DHT22;1299;48.282;14.398;2023-04-01T13:37:07;14.30;99.90
2579;DHT22;1299;48.282;14.398;2023-04-01T13:39:46;14.50;99.90
2579;DHT22;1299;48.282;14.398;2023-04-01T13:42:21;14.70;99.90
2579;DHT22;1299;48.282;14.398;2023-04-01T13:44:55;14.90;99.90
2579;DHT22;1299;48.282;14.398;2023-04-01T13:47:50;14.90;99.90
2579;DHT22;1299;48.282;14.398;2023-04-01T13:50:50;14.90;99.90
2579;DHT22;1299;48.282;14.398;2023-04-01T13:53:42;15.20;99.90
2579;DHT22;1299;48.282;14.398;2023-04-01T13:56:29;15.30;99.90
2579;DHT22;1299;48.282;14.398;2023-04-01T13:59:28;15.30;99.90
2579;DHT22;1299;48.282;14.398;2023-04-01T14:02:07;15.00;99.90
2579;DHT22;1299;48.282;14.398;2023-04-01T14:04:58;15.10;99.90
2579;DHT22;1299;48.282;14.398;2023-04-01T14:07:47;15.10;99.90
2579;DHT22;1299;48.282;14.398;2023-04-01T14:10:31;15.00;99.90
2579;DHT22;1299;48.282;14.398;2023-04-01T14:13:06;14.70;99.90
2579;DHT22;1299;48.282;14.398;2023-04-01T14:15:49;14.60;99.90
2579;DHT22;1299;48.282;14.398;2023-04-01T14:18:37;14.70;99.90
2579;DHT22;1299;48.282;14.398;2023-04-01T14:21:20;15.00;99.90
2579;DHT22;1299;48.282;14.398;2023-04-01T14:24:09;15.30;99.90
2579;DHT22;1299;48.282;14.398;2023-04-01T14:29:50;14.50;99.90
2579;DHT22;1299;48.282;14.398;2023-04-01T14:32:31;13.40;99.90
2579;DHT22;1299;48.282;14.398;2023-04-01T14:35:21;13.20;99.90
2579;DHT22;1299;48.282;14.398;2023-04-01T14:38:04;12.70;99.90
2579;DHT22;1299;48.282;14.398;2023-04-01T14:40:56;12.60;99.90
2579;DHT22;1299;48.282;14.398;2023-04-01T14:43:43;12.60;99.90
2579;DHT22;1299;48.282;14.398;2023-04-01T14:46:27;12.80;99.90
2579;DHT22;1299;48.282;14.398;2023-04-01T14:49:00;12.90;99.90
2579;DHT22;1299;48.282;14.398;2023-04-01T14:51:32;13.00;99.90
2579;DHT22;1299;48.282;14.398;2023-04-01T14:54:04;12.80;99.90
2579;DHT22;1299;48.282;14.398;2023-04-01T14:56:38;12.80;99.90
2579;DHT22;1299;48.282;14.398;2023-04-01T14:59:10;13.00;99.90
2579;DHT22;1299;48.282;14.398;2023-04-01T15:01:47;13.10;99.90
2579;DHT22;1299;48.282;14.398;2023-04-01T15:04:37;12.80;99.90
2579;DHT22;1299;48.282;14.398;2023-04-01T15:07:35;12.60;99.90
2579;DHT22;1299;48.282;14.398;2023-04-01T15:10:16;12.50;99.90
2579;DHT22;1299;48.282;14.398;2023-04-01T15:12:53;12.60;99.90
2579;DHT22;1299;48.282;14.398;2023-04-01T15:15:44;12.50;99.90
2579;DHT22;1299;48.282;14.398;2023-04-01T15:18:20;12.40;99.90
2579;DHT22;1299;48.282;14.398;2023-04-01T15:23:58;12.50;99.90
2579;DHT22;1299;48.282;14.398;2023-04-01T15:26:48;12.50;99.90
2579;DHT22;1299;48.282;14.398;2023-04-01T15:29:43;12.40;99.90
2579;DHT22;1299;48.282;14.398;2023-04-01T15:32:17;12.20;99.90
2579;DHT22;1299;48.282;14.398;2023-04-01T15:34:53;11.80;99.90
2579;DHT22;1299;48.282;14.398;2023-04-01T15:37:31;11.80;99.90
2579;DHT22;1299;48.282;14.398;2023-04-01T15:40:11;11.90;99.90
2579;DHT22;1299;48.282;14.398;2023-04-01T15:42:55;11.90;99.90
2579;DHT22;1299;48.282;14.398;2023-04-01T15:45:38;12.00;99.90
2579;DHT22;1299;48.282;14.398;2023-04-01T15:48:21;12.10;99.90
2579;DHT22;1299;48.282;14.398;2023-04-01T15:51:10;12.30;99.90
2579;DHT22;1299;48.282;14.398;2023-04-01T15:53:54;12.20;99.90
2579;DHT22;1299;48.282;14.398;2023-04-01T15:56:37;12.30;99.90
2579;DHT22;1299;48.282;14.398;2023-04-01T15:59:19;12.30;99.90
2579;DHT22;1299;48.282;14.398;2023-04-01T16:01:53;12.30;99.90
2579;DHT22;1299;48.282;14.398;2023-04-01T16:04:36;12.30;99.90
2579;DHT22;1299;48.282;14.398;2023-04-01T16:07:21;12.40;99.90
2579;DHT22;1299;48.282;14.398;2023-04-01T16:10:09;12.10;99.90
2579;DHT22;1299;48.282;14.398;2023-04-01T16:12:56;11.90;99.90
2579;DHT22;1299;48.282;14.398;2023-04-01T16:15:28;11.90;99.90
2579;DHT22;1299;48.282;14.398;2023-04-01T16:18:19;11.90;99.90
2579;DHT22;1299;48.282;14.398;2023-04-01T16:20:54;11.80;99.90
2579;DHT22;1299;48.282;14.398;2023-04-01T16:23:29;11.90;99.90
2579;DHT22;1299;48.282;14.398;2023-04-01T16:26:07;11.80;99.90
2579;DHT22;1299;48.282;14.398;2023-04-01T16:28:42;11.80;99.90
2579;DHT22;1299;48.282;14.398;2023-04-01T16:31:23;11.80;99.90
2579;DHT22;1299;48.282;14.398;2023-04-01T16:33:57;11.50;99.90
2579;DHT22;1299;48.282;14.398;2023-04-01T16:36:29;11.70;99.90
2579;DHT22;1299;48.282;14.398;2023-04-01T16:39:15;11.60;99.90
2579;DHT22;1299;48.282;14.398;2023-04-01T16:41:49;11.60;99.90
2579;DHT22;1299;48.282;14.398;2023-04-01T16:44:21;11.40;99.90
2579;DHT22;1299;48.282;14.398;2023-04-01T16:46:52;11.30;99.90
2579;DHT22;1299;48.282;14.398;2023-04-01T16:49:29;11.40;99.90
2579;DHT22;1299;48.282;14.398;2023-04-01T16:52:12;11.30;99.90
2579;DHT22;1299;48.282;14.398;2023-04-01T16:54:46;11.40;99.90
2579;DHT22;1299;48.282;14.398;2023-04-01T16:57:21;11.20;99.90
2579;DHT22;1299;48.282;14.398;2023-04-01T16:59:58;11.20;99.90
2579;DHT22;1299;48.282;14.398;2023-04-01T17:02:35;11.20;99.90
2579;DHT22;1299;48.282;14.398;2023-04-01T17:05:09;11.20;99.90
2579;DHT22;1299;48.282;14.398;2023-04-01T17:07:46;11.20;99.90
2579;DHT22;1299;48.282;14.398;2023-04-01T17:10:35;11.20;99.90
2579;DHT22;1299;48.282;14.398;2023-04-01T17:16:25;11.20;99.90
2579;DHT22;1299;48.282;14.398;2023-04-01T17:19:02;11.20;99.90
2579;DHT22;1299;48.282;14.398;2023-04-01T17:21:46;11.10;99.90
2579;DHT22;1299;48.282;14.398;2023-04-01T17:24:28;11.10;99.90
2579;DHT22;1299;48.282;14.398;2023-04-01T17:27:06;11.10;99.90
2579;DHT22;1299;48.282;14.398;2023-04-01T17:29:59;11.10;99.90
2579;DHT22;1299;48.282;14.398;2023-04-01T17:32:43;11.10;99.90
2579;DHT22;1299;48.282;14.398;2023-04-01T17:35:20;11.00;99.90
2579;DHT22;1299;48.282;14.398;2023-04-01T17:38:04;11.10;99.90
2579;DHT22;1299;48.282;14.398;2023-04-01T17:40:40;11.20;99.90
2579;DHT22;1299;48.282;14.398;2023-04-01T17:43:19;11.20;99.90
2579;DHT22;1299;48.282;14.398;2023-04-01T17:45:54;11.10;99.90
2579;DHT22;1299;48.282;14.398;2023-04-01T17:48:34;11.20;99.90
2579;DHT22;1299;48.282;14.398;2023-04-01T17:51:18;11.20;99.90
2579;DHT22;1299;48.282;14.398;2023-04-01T17:53:54;11.10;99.90
2579;DHT22;1299;48.282;14.398;2023-04-01T17:56:40;11.10;99.90
2579;DHT22;1299;48.282;14.398;2023-04-01T17:59:18;11.10;99.90
2579;DHT22;1299;48.282;14.398;2023-04-01T18:02:00;11.10;99.90
2579;DHT22;1299;48.282;14.398;2023-04-01T18:07:40;11.00;99.90
2579;DHT22;1299;48.282;14.398;2023-04-01T18:10:22;11.10;99.90
2579;DHT22;1299;48.282;14.398;2023-04-01T18:13:12;11.00;99.90
2579;DHT22;1299;48.282;14.398;2023-04-01T18:15:48;11.00;99.90